Strona główna
METAR-TAF:

METAR-TAF

Lotnisko :

Cleveland, Ohio, Stany Zjednoczone

Szerokość geograficzna: 41-31-32N, Długość geograficzna: 081-40-08W, wysokość: 178 m

Aktualna obserwacja pogody

Raport powstał 24 minut temu, godzina 05:53 UTC
Wiatr 16 kt od zachodnio-południowy zachód
Temperatura 11°C
Wilgotność 71%
Ciśnienie 1002 hPa
Widzialność: 16.1 km
Przerywane chmury na wysokości 2600 ft
Przerywane chmury na wysokości 3200 ft
Zachmurzenie całkowite na wysokości 5000 ft

METAR: KBKL 100553Z 24016KT 10SM BKN026 BKN032 OVC050 11/06 A2960 RMK AO2 SLP026 60005 T01060056 10128 20094 53020 $

czas: 01:17 (06:17 UTC)


TAF: brakujący

Obserwacja i prognoza pogody dla ponad 4000 lotnisk (raport METAR i TAF).

Dostępne stacje oznaczono żółtymi i czerwonymi punktami na mapie.

Najedź kursorem aby zobaczyć nazwę stacji.

Kliknij aby zobaczyć obserwacje i prognozy pogody.

Aby zmienić mapę: kliknij na zielony przycisk z czarnym krzyżykiem, aby powiększyć; na zielony przycisk z myślnikiem, aby pomniejszyć; na zielone strzałki, aby przejść do map sąsiednich.


METAR-TAF: